createdAt,value
2018-12-07T00:00:33.916Z,100069.88
2018-12-07T00:03:16.285Z,100063.95
2018-12-07T00:05:58.090Z,100071.52
2018-12-07T00:08:40.428Z,100064.43
2018-12-07T00:11:23.519Z,100064.67
2018-12-07T00:14:06.708Z,100057.28
2018-12-07T00:16:49.527Z,100049.54
2018-12-07T00:19:31.887Z,100042.52
2018-12-07T00:22:14.216Z,100048.66
2018-12-07T00:24:56.070Z,100038.74
2018-12-07T00:27:38.749Z,100036.10
2018-12-07T00:30:20.680Z,100040.63
2018-12-07T00:33:03.100Z,100033.82
2018-12-07T00:35:44.887Z,100027.22
2018-12-07T00:38:27.119Z,100012.94
2018-12-07T00:41:09.369Z,100002.67
2018-12-07T00:43:51.219Z,100006.89
2018-12-07T00:46:33.497Z,100009.42
2018-12-07T00:49:16.112Z,100007.60
2018-12-07T00:51:57.987Z,100009.02
2018-12-07T00:54:40.106Z,100012.31
2018-12-07T00:57:22.286Z,100017.34
2018-12-07T01:00:04.792Z,100018.62
2018-12-07T01:02:46.923Z,100018.20
2018-12-07T01:05:29.541Z,100025.05
2018-12-07T01:08:11.710Z,100028.33
2018-12-07T01:10:53.649Z,100018.66
2018-12-07T01:13:35.707Z,100019.47
2018-12-07T01:16:18.012Z,100019.59
2018-12-07T01:19:00.660Z,100019.34
2018-12-07T01:21:42.973Z,100028.91
2018-12-07T01:24:24.684Z,100022.23
2018-12-07T01:27:06.899Z,100025.11
2018-12-07T01:29:55.803Z,100017.65
2018-12-07T01:32:38.108Z,100015.96
2018-12-07T01:35:20.253Z,100013.06
2018-12-07T01:38:02.577Z,100020.23
2018-12-07T01:40:44.866Z,100011.20
2018-12-07T01:43:26.879Z,100001.22
2018-12-07T01:46:09.676Z,99995.52
2018-12-07T01:48:51.696Z,99990.12
2018-12-07T01:51:33.663Z,99988.26
2018-12-07T01:54:15.663Z,99975.45
2018-12-07T01:56:58.180Z,99969.54
2018-12-07T01:59:40.115Z,99965.25
2018-12-07T02:02:22.133Z,99961.55
2018-12-07T02:05:04.702Z,99959.58
2018-12-07T02:07:46.680Z,99960.25
2018-12-07T02:10:29.390Z,99960.59
2018-12-07T02:13:11.804Z,99960.02
2018-12-07T02:15:54.072Z,99950.70
2018-12-07T02:18:36.412Z,99940.02
2018-12-07T02:21:18.725Z,99932.09
2018-12-07T02:24:01.048Z,99952.22
2018-12-07T02:26:43.557Z,99935.80
2018-12-07T02:29:25.703Z,99934.27
2018-12-07T02:32:07.916Z,99931.47
2018-12-07T02:34:56.666Z,99926.56
2018-12-07T02:37:38.574Z,99926.72
2018-12-07T02:40:20.836Z,99924.73
2018-12-07T02:43:02.772Z,99923.41
2018-12-07T02:45:44.621Z,99924.91
2018-12-07T02:48:26.835Z,99920.03
2018-12-07T02:51:11.972Z,99903.54
2018-12-07T02:53:55.070Z,99899.58
2018-12-07T02:56:37.615Z,99900.58
2018-12-07T02:59:19.935Z,99897.31
2018-12-07T03:02:02.312Z,99880.87
2018-12-07T03:04:45.913Z,99881.52
2018-12-07T03:07:28.575Z,99878.63
2018-12-07T03:10:11.396Z,99873.68
2018-12-07T03:12:53.391Z,99869.27
2018-12-07T03:15:36.784Z,99854.66
2018-12-07T03:18:30.396Z,99856.09
2018-12-07T03:21:12.909Z,99860.27
2018-12-07T03:23:54.926Z,99850.45
2018-12-07T03:26:37.172Z,99845.64
2018-12-07T03:29:19.211Z,99853.38
2018-12-07T03:32:01.817Z,99850.39
2018-12-07T03:34:44.738Z,99857.56
2018-12-07T03:37:27.397Z,99853.70
2018-12-07T03:40:09.774Z,99839.24
2018-12-07T03:42:51.704Z,99835.73
2018-12-07T03:45:34.089Z,99835.66
2018-12-07T03:48:16.806Z,99832.98
2018-12-07T03:50:59.449Z,99826.59
2018-12-07T03:53:42.135Z,99822.84
2018-12-07T03:56:24.463Z,99823.80
2018-12-07T03:59:06.871Z,99824.48
2018-12-07T04:01:49.283Z,99822.45
2018-12-07T04:04:32.426Z,99817.22
2018-12-07T04:07:14.455Z,99808.16
2018-12-07T04:09:57.258Z,99804.59
2018-12-07T04:12:39.336Z,99810.43
2018-12-07T04:15:22.642Z,99809.48
2018-12-07T04:18:05.305Z,99794.59
2018-12-07T04:20:50.038Z,99787.86
2018-12-07T04:23:32.415Z,99800.36
2018-12-07T04:26:15.092Z,99790.31
2018-12-07T04:28:57.196Z,99787.84
2018-12-07T04:31:40.594Z,99787.68
2018-12-07T04:34:24.771Z,99790.45
2018-12-07T04:37:10.299Z,99786.04
2018-12-07T04:39:53.229Z,99791.38
2018-12-07T04:42:36.384Z,99783.57
2018-12-07T04:45:19.869Z,99785.64
2018-12-07T04:48:01.354Z,99778.59
2018-12-07T04:50:43.999Z,99775.41
2018-12-07T04:53:27.652Z,99769.40
2018-12-07T04:56:09.911Z,99766.72
2018-12-07T04:58:52.182Z,99763.48
2018-12-07T05:01:34.387Z,99759.59
2018-12-07T05:04:16.942Z,99754.64
2018-12-07T05:06:59.404Z,99756.08
2018-12-07T05:09:40.970Z,99746.25
2018-12-07T05:12:22.945Z,99739.69
2018-12-07T05:15:06.948Z,99732.69
2018-12-07T05:20:34.732Z,99726.73
2018-12-07T05:23:16.284Z,99726.11
2018-12-07T05:25:58.283Z,99723.92
2018-12-07T05:28:40.363Z,99719.63
2018-12-07T05:31:22.255Z,99722.70
2018-12-07T05:34:04.153Z,99726.86
2018-12-07T05:36:45.840Z,99726.31
2018-12-07T05:39:28.335Z,99721.71
2018-12-07T05:42:10.957Z,99726.08
2018-12-07T05:44:52.450Z,99714.17
2018-12-07T05:47:34.996Z,99719.45
2018-12-07T05:50:18.257Z,99715.31
2018-12-07T05:53:00.561Z,99716.43
2018-12-07T05:55:42.524Z,99715.60
2018-12-07T05:58:23.984Z,99719.23
2018-12-07T06:01:06.481Z,99720.16
2018-12-07T06:03:48.759Z,99719.19
2018-12-07T06:06:31.190Z,99718.96
2018-12-07T06:09:13.612Z,99713.19
2018-12-07T06:11:55.227Z,99715.23
2018-12-07T06:14:37.800Z,99715.52
2018-12-07T06:17:19.770Z,99715.41
2018-12-07T06:20:01.968Z,99709.08
2018-12-07T06:22:43.503Z,99720.88
2018-12-07T06:25:25.003Z,99723.83
2018-12-07T06:28:07.347Z,99725.72
2018-12-07T06:30:49.189Z,99723.09
2018-12-07T06:33:31.953Z,99712.97
2018-12-07T06:36:14.112Z,99720.24
2018-12-07T06:38:55.825Z,99713.43
2018-12-07T06:41:38.120Z,99715.45
2018-12-07T06:44:20.276Z,99713.00
2018-12-07T06:47:01.900Z,99713.66
2018-12-07T06:49:46.012Z,99714.39
2018-12-07T06:52:28.084Z,99705.28
2018-12-07T06:55:10.125Z,99704.86
2018-12-07T06:57:52.599Z,99709.14
2018-12-07T07:00:34.735Z,99700.38
2018-12-07T07:03:16.261Z,99699.32
2018-12-07T07:05:58.669Z,99691.48
2018-12-07T07:08:40.468Z,99686.34
2018-12-07T07:11:22.681Z,99685.67
2018-12-07T07:14:05.794Z,99691.59
2018-12-07T07:16:47.328Z,99689.69
2018-12-07T07:19:29.993Z,99690.71
2018-12-07T07:22:12.505Z,99680.13
2018-12-07T07:24:55.859Z,99683.55
2018-12-07T07:27:37.932Z,99684.08
2018-12-07T07:30:19.885Z,99681.45
2018-12-07T07:33:01.420Z,99678.59
2018-12-07T07:35:43.415Z,99681.42
2018-12-07T07:38:26.027Z,99672.81
2018-12-07T07:41:08.342Z,99672.72
2018-12-07T07:43:49.944Z,99666.86
2018-12-07T07:46:31.704Z,99665.91
2018-12-07T07:49:14.333Z,99663.11
2018-12-07T07:51:56.245Z,99660.73
2018-12-07T07:54:38.321Z,99662.07
2018-12-07T07:57:20.438Z,99652.87
2018-12-07T08:00:02.829Z,99653.98
2018-12-07T08:02:44.810Z,99638.21
2018-12-07T08:05:26.824Z,99650.86
2018-12-07T08:08:08.757Z,99647.70
2018-12-07T08:10:51.019Z,99640.89
2018-12-07T08:13:32.754Z,99632.69
2018-12-07T08:16:15.153Z,99641.25
2018-12-07T08:18:56.738Z,99641.73
2018-12-07T08:21:39.043Z,99640.70
2018-12-07T08:24:21.043Z,99643.80
2018-12-07T08:27:02.867Z,99631.88
2018-12-07T08:29:44.712Z,99633.90
2018-12-07T08:32:26.288Z,99636.66
2018-12-07T08:35:09.594Z,99640.91
2018-12-07T08:37:51.515Z,99639.52
2018-12-07T08:40:33.366Z,99633.11
2018-12-07T08:43:15.901Z,99637.50
2018-12-07T08:45:57.474Z,99630.88
2018-12-07T08:48:39.508Z,99627.56
2018-12-07T08:51:21.133Z,99634.12
2018-12-07T08:54:03.178Z,99631.31
2018-12-07T08:56:44.935Z,99624.98
2018-12-07T08:59:26.825Z,99614.27
2018-12-07T09:02:08.680Z,99616.94
2018-12-07T09:04:50.571Z,99618.42
2018-12-07T09:07:32.848Z,99617.58
2018-12-07T09:10:15.821Z,99614.22
2018-12-07T09:12:58.105Z,99609.78
2018-12-07T09:15:40.044Z,99606.08
2018-12-07T09:18:22.234Z,99595.23
2018-12-07T09:21:03.926Z,99594.31
2018-12-07T09:23:49.531Z,99597.22
2018-12-07T09:26:29.868Z,99592.45
2018-12-07T09:29:12.187Z,99588.66
2018-12-07T09:31:54.425Z,99593.80
2018-12-07T09:34:36.475Z,99582.79
2018-12-07T09:37:17.996Z,99584.95
2018-12-07T09:40:00.401Z,99575.78
2018-12-07T09:42:43.195Z,99572.18
2018-12-07T09:45:25.109Z,99570.36
2018-12-07T09:48:06.827Z,99565.13
2018-12-07T09:50:48.308Z,99560.56
2018-12-07T09:53:29.888Z,99557.10
2018-12-07T09:56:11.698Z,99547.64
2018-12-07T09:58:54.100Z,99546.89
2018-12-07T10:01:36.076Z,99542.98
2018-12-07T10:04:17.768Z,99537.63
2018-12-07T10:07:00.077Z,99528.91
2018-12-07T10:09:42.377Z,99524.59
2018-12-07T10:12:24.366Z,99527.55
2018-12-07T10:15:07.204Z,99529.66
2018-12-07T10:17:48.636Z,99523.95
2018-12-07T10:20:31.269Z,99522.25
2018-12-07T10:23:13.348Z,99518.64
2018-12-07T10:25:55.234Z,99519.50
2018-12-07T10:28:36.705Z,99510.80
2018-12-07T10:31:18.596Z,99502.56
2018-12-07T10:34:00.316Z,99500.81
2018-12-07T10:36:42.868Z,99495.27
2018-12-07T10:39:24.839Z,99484.38
2018-12-07T10:42:07.258Z,99474.87
2018-12-07T10:44:48.865Z,99467.70
2018-12-07T10:47:31.094Z,99457.92
2018-12-07T10:50:12.640Z,99454.12
2018-12-07T10:52:54.756Z,99455.80
2018-12-07T10:55:36.323Z,99451.28
2018-12-07T10:58:17.884Z,99444.09
2018-12-07T11:01:05.208Z,99437.92
2018-12-07T11:03:52.784Z,99433.64
2018-12-07T11:06:40.117Z,99429.02
2018-12-07T11:09:27.351Z,99420.84
2018-12-07T11:12:14.736Z,99417.22
2018-12-07T11:15:01.901Z,99412.55
2018-12-07T11:17:48.839Z,99411.45
2018-12-07T11:20:35.858Z,99404.53
2018-12-07T11:23:24.535Z,99404.16
2018-12-07T11:26:11.729Z,99399.84
2018-12-07T11:28:59.667Z,99392.06
2018-12-07T11:31:46.057Z,99389.60
2018-12-07T11:34:30.018Z,99383.75
2018-12-07T11:37:12.239Z,99382.87
2018-12-07T11:39:53.872Z,99370.70
2018-12-07T11:42:37.286Z,99370.27
2018-12-07T11:45:19.355Z,99369.84
2018-12-07T11:48:02.306Z,99365.89
2018-12-07T11:50:44.680Z,99359.23
2018-12-07T11:53:27.180Z,99354.34
2018-12-07T11:56:09.118Z,99350.91
2018-12-07T11:58:51.345Z,99347.89
2018-12-07T12:01:33.993Z,99340.78
2018-12-07T12:04:16.264Z,99337.06
2018-12-07T12:06:58.897Z,99339.36
2018-12-07T12:09:41.292Z,99343.32
2018-12-07T12:12:26.976Z,99330.98
2018-12-07T12:15:09.551Z,99325.23
2018-12-07T12:17:52.364Z,99316.25
2018-12-07T12:20:34.351Z,99320.73
2018-12-07T12:23:16.402Z,99306.34
2018-12-07T12:25:58.653Z,99313.63
2018-12-07T12:28:40.844Z,99308.89
2018-12-07T12:31:22.709Z,99308.36
2018-12-07T12:34:05.674Z,99302.11
2018-12-07T12:36:47.956Z,99300.15
2018-12-07T12:39:30.812Z,99291.84
2018-12-07T12:42:13.079Z,99293.57
2018-12-07T12:44:57.240Z,99292.23
2018-12-07T12:47:39.353Z,99284.00
2018-12-07T12:50:27.147Z,99283.21
2018-12-07T12:53:10.547Z,99272.88
2018-12-07T12:55:52.544Z,99263.44
2018-12-07T12:58:34.496Z,99263.78
2018-12-07T13:01:16.580Z,99259.44
2018-12-07T13:03:58.679Z,99257.20
2018-12-07T13:06:40.752Z,99251.10
2018-12-07T13:09:22.673Z,99241.91
2018-12-07T13:12:05.008Z,99233.61
2018-12-07T13:14:46.529Z,99237.03
2018-12-07T13:17:28.019Z,99226.97
2018-12-07T13:20:10.841Z,99216.18
2018-12-07T13:22:52.999Z,99215.95
2018-12-07T13:25:35.377Z,99217.95
2018-12-07T13:28:17.573Z,99209.86
2018-12-07T13:30:59.616Z,99201.58
2018-12-07T13:33:41.295Z,99204.52
2018-12-07T13:36:23.733Z,99191.18
2018-12-07T13:39:08.779Z,99189.94
2018-12-07T13:41:53.324Z,99185.58
2018-12-07T13:44:35.226Z,99184.05
2018-12-07T13:47:17.874Z,99186.09
2018-12-07T13:50:09.747Z,99192.02
2018-12-07T13:52:52.437Z,99185.59
2018-12-07T13:55:34.844Z,99186.91
2018-12-07T13:58:19.964Z,99179.67
2018-12-07T14:01:01.900Z,99168.80
2018-12-07T14:03:44.043Z,99168.45
2018-12-07T14:06:26.883Z,99165.33
2018-12-07T14:09:10.694Z,99153.14
2018-12-07T14:11:52.420Z,99151.03
2018-12-07T14:14:34.535Z,99135.64
2018-12-07T14:17:17.986Z,99135.09
2018-12-07T14:20:00.322Z,99121.90
2018-12-07T14:22:42.655Z,99118.36
2018-12-07T14:25:25.288Z,99109.20
2018-12-07T14:28:08.027Z,99099.81
2018-12-07T14:30:51.561Z,99092.90
2018-12-07T14:33:33.340Z,99089.57
2018-12-07T14:36:16.906Z,99075.76
2018-12-07T14:38:59.405Z,99068.83
2018-12-07T14:41:42.197Z,99057.95
2018-12-07T14:44:24.459Z,99048.56
2018-12-07T14:47:08.933Z,99048.61
2018-12-07T14:49:51.006Z,99045.11
2018-12-07T14:52:32.789Z,99045.52
2018-12-07T14:55:16.011Z,99045.09
2018-12-07T14:57:58.899Z,99045.22
2018-12-07T15:00:40.751Z,99025.11
2018-12-07T15:03:22.599Z,99022.73
2018-12-07T15:06:05.054Z,99011.83
2018-12-07T15:08:47.785Z,99010.98
2018-12-07T15:11:29.887Z,99010.89
2018-12-07T15:14:12.362Z,99009.40
2018-12-07T15:16:54.244Z,98999.73
2018-12-07T15:19:36.714Z,98995.98
2018-12-07T15:22:19.302Z,98980.86
2018-12-07T15:25:01.350Z,98978.11
2018-12-07T15:27:43.467Z,98973.23
2018-12-07T15:30:26.401Z,98976.14
2018-12-07T15:33:08.794Z,98966.17
2018-12-07T15:35:51.293Z,98966.31
2018-12-07T15:38:33.471Z,98961.79
2018-12-07T15:41:15.460Z,98966.09
2018-12-07T15:43:58.804Z,98968.09
2018-12-07T15:46:40.637Z,98969.45
2018-12-07T15:49:23.122Z,98958.97
2018-12-07T15:52:06.900Z,98950.45
2018-12-07T15:54:49.724Z,98950.84
2018-12-07T15:57:34.538Z,98944.35
2018-12-07T16:00:19.688Z,98939.94
2018-12-07T16:03:02.112Z,98932.89
2018-12-07T16:05:44.413Z,98928.31
2018-12-07T16:08:26.737Z,98910.37
2018-12-07T16:43:32.567Z,98835.79
2018-12-07T16:46:14.803Z,98829.16
2018-12-07T16:48:56.783Z,98817.80
2018-12-07T16:51:39.589Z,98810.28
2018-12-07T16:54:21.938Z,98804.67
2018-12-07T16:57:04.691Z,98801.95
2018-12-07T16:59:46.976Z,98802.18
2018-12-07T17:02:29.428Z,98793.92
2018-12-07T17:05:16.300Z,98797.69
2018-12-07T17:08:00.870Z,98787.66
2018-12-07T17:10:43.583Z,98784.14
2018-12-07T17:13:27.005Z,98784.44
2018-12-07T17:16:11.159Z,98785.39
2018-12-07T17:18:53.109Z,98790.03
2018-12-07T17:21:37.352Z,98792.19
2018-12-07T17:24:19.583Z,98786.78
2018-12-07T17:27:03.078Z,98780.23
2018-12-07T17:29:47.355Z,98782.84
2018-12-07T17:32:37.689Z,98778.33
2018-12-07T17:35:20.900Z,98772.68
2018-12-07T17:38:03.919Z,98774.06
2018-12-07T17:40:48.396Z,98773.15
2018-12-07T17:43:31.258Z,98769.33
2018-12-07T17:46:14.190Z,98768.35
2018-12-07T17:48:56.563Z,98770.31
2018-12-07T17:51:39.098Z,98780.38
2018-12-07T17:54:22.232Z,98779.41
2018-12-07T17:57:04.693Z,98773.80
2018-12-07T17:59:48.617Z,98772.44
2018-12-07T18:02:31.067Z,98766.96
2018-12-07T18:05:14.791Z,98770.59
2018-12-07T18:07:57.634Z,98769.17
2018-12-07T18:10:39.925Z,98768.97
2018-12-07T18:13:23.151Z,98758.47
2018-12-07T18:16:05.639Z,98751.56
2018-12-07T18:18:48.375Z,98737.83
2018-12-07T18:21:30.878Z,98733.80
2018-12-07T18:24:13.411Z,98730.82
2018-12-07T18:26:57.552Z,98737.14
2018-12-07T18:29:40.123Z,98740.58
2018-12-07T18:32:23.612Z,98744.91
2018-12-07T18:35:07.401Z,98743.80
2018-12-07T18:37:50.405Z,98745.80
2018-12-07T18:40:33.181Z,98759.36
2018-12-07T18:43:17.506Z,98745.62
2018-12-07T18:46:01.092Z,98744.91
2018-12-07T18:48:43.237Z,98746.05
2018-12-07T18:51:28.097Z,98741.55
2018-12-07T18:54:13.013Z,98753.41
2018-12-07T18:56:55.679Z,98742.91
2018-12-07T18:59:38.425Z,98735.05
2018-12-07T19:02:20.439Z,98709.20
2018-12-07T19:05:12.883Z,98703.63
2018-12-07T19:07:55.839Z,98701.17
2018-12-07T19:10:39.003Z,98700.98
2018-12-07T19:13:22.286Z,98705.37
2018-12-07T19:16:06.076Z,98693.16
2018-12-07T19:18:50.576Z,98693.97
2018-12-07T19:21:33.367Z,98684.20
2018-12-07T19:24:18.077Z,98691.04
2018-12-07T19:27:00.751Z,98684.02
2018-12-07T19:29:42.695Z,98687.41
2018-12-07T19:32:26.919Z,98678.95
2018-12-07T19:35:10.032Z,98671.05
2018-12-07T19:37:53.775Z,98657.50
2018-12-07T19:40:36.888Z,98650.87
2018-12-07T19:43:21.166Z,98647.80
2018-12-07T19:46:04.291Z,98650.42
2018-12-07T19:48:47.869Z,98637.98
2018-12-07T19:51:31.133Z,98641.70
2018-12-07T19:54:14.202Z,98641.23
2018-12-07T19:56:56.550Z,98644.17
2018-12-07T19:59:40.176Z,98641.11
2018-12-07T20:02:22.900Z,98644.30
2018-12-07T20:05:06.677Z,98635.20
2018-12-07T20:07:49.091Z,98627.84
2018-12-07T20:10:31.847Z,98636.47
2018-12-07T20:13:14.345Z,98636.15
2018-12-07T20:15:56.849Z,98633.56
2018-12-07T20:18:38.974Z,98622.33
2018-12-07T20:21:22.097Z,98628.87
2018-12-07T20:24:05.241Z,98615.35
2018-12-07T20:26:47.505Z,98611.80
2018-12-07T20:29:30.130Z,98592.86
2018-12-07T20:32:12.489Z,98591.67
2018-12-07T20:34:54.945Z,98577.06
2018-12-07T20:37:37.552Z,98576.32
2018-12-07T20:40:20.248Z,98584.69
2018-12-07T20:43:02.772Z,98582.94
2018-12-07T20:45:45.425Z,98586.13
2018-12-07T20:48:29.616Z,98566.63
2018-12-07T20:51:12.005Z,98560.91
2018-12-07T20:53:54.285Z,98564.88
2018-12-07T20:56:36.982Z,98561.94
2018-12-07T20:59:19.411Z,98537.78
2018-12-07T21:02:03.090Z,98549.41
2018-12-07T21:04:45.689Z,98538.30
2018-12-07T21:07:50.817Z,98535.84
2018-12-07T21:11:50.751Z,98534.58
2018-12-07T21:15:04.543Z,98547.45
2018-12-07T21:17:46.577Z,98537.40
2018-12-07T21:20:28.966Z,98539.25
2018-12-07T21:23:11.442Z,98536.20
2018-12-07T21:25:53.855Z,98542.05
2018-12-07T21:28:36.430Z,98547.04
2018-12-07T21:31:19.073Z,98549.66
2018-12-07T21:35:11.186Z,98549.27
2018-12-07T21:37:53.442Z,98549.01
2018-12-07T21:40:36.305Z,98546.98
2018-12-07T21:43:19.136Z,98537.70
2018-12-07T21:46:02.731Z,98530.36
2018-12-07T21:48:44.701Z,98525.78
2018-12-07T21:51:59.627Z,98528.67
2018-12-07T21:54:42.347Z,98524.34
2018-12-07T21:57:25.819Z,98519.23
2018-12-07T22:00:09.063Z,98528.08
2018-12-07T22:02:51.901Z,98527.30
2018-12-07T22:05:34.199Z,98537.38
2018-12-07T22:08:16.446Z,98532.92
2018-12-07T22:10:58.889Z,98530.64
2018-12-07T22:13:41.352Z,98519.14
2018-12-07T22:16:23.811Z,98519.34
2018-12-07T22:19:06.676Z,98513.66
2018-12-07T22:21:48.771Z,98518.78
2018-12-07T22:24:31.537Z,98519.22
2018-12-07T22:27:14.586Z,98510.29
2018-12-07T22:29:57.112Z,98508.03
2018-12-07T22:32:39.463Z,98506.11
2018-12-07T22:35:22.068Z,98516.06
2018-12-07T22:38:04.925Z,98525.88
2018-12-07T22:40:47.133Z,98533.41
2018-12-07T22:43:29.622Z,98515.06
2018-12-07T22:46:11.916Z,98520.24
2018-12-07T22:48:55.363Z,98529.48
2018-12-07T22:51:37.729Z,98536.86
2018-12-07T22:54:19.965Z,98530.06
2018-12-07T22:57:01.797Z,98526.97
2018-12-07T22:59:43.840Z,98526.77
2018-12-07T23:02:25.691Z,98531.80
2018-12-07T23:05:08.451Z,98538.45
2018-12-07T23:07:50.390Z,98540.75
2018-12-07T23:10:32.793Z,98543.20
2018-12-07T23:13:14.380Z,98545.11
2018-12-07T23:15:57.016Z,98535.45
2018-12-07T23:18:38.817Z,98531.88
2018-12-07T23:21:20.644Z,98530.61
2018-12-07T23:24:02.236Z,98536.46
2018-12-07T23:26:44.169Z,98525.16
2018-12-07T23:29:26.267Z,98531.20
2018-12-07T23:32:08.264Z,98542.96
2018-12-07T23:34:50.041Z,98546.13
2018-12-07T23:37:33.383Z,98549.14
2018-12-07T23:40:14.975Z,98528.67
2018-12-07T23:43:02.460Z,98539.42
2018-12-07T23:45:45.068Z,98553.36
2018-12-07T23:48:27.526Z,98544.52
2018-12-07T23:51:09.505Z,98542.15
2018-12-07T23:53:52.041Z,98557.00
2018-12-07T23:56:34.042Z,98546.81
2018-12-07T23:59:16.758Z,98547.86
